Saltar para o conteúdo principal

Pinhão, Santa Bárbara

ID 1210655 · 41.1728, -7.5490 mapa

Última leitura · 2026-05-09 18:00 (Europe/Lisbon)

Temperatura
13.9 °C
Humidade
86 %
Pressão
Precipitação
2.6 mm
Radiação
Velocidade do vento
2.2 km/h
Direcção do vento
NE · Nordeste

Histórico de 24 horas

Hora (Europe/Lisbon) Temperatura Humidade Pressão Chuva Vento Direcção
2026-05-09 18:00 13.9 °C 86 % 2.6 mm 2.2 km/h NE
2026-05-09 17:00 15.5 °C 78 % 1.4 mm 4.7 km/h SE
2026-05-09 16:00 15.6 °C 78 % 0.0 mm 5.8 km/h N
2026-05-09 15:00 15.0 °C 82 % 1.0 mm 7.9 km/h N
2026-05-09 14:00 16.9 °C 66 % 0.3 mm 5.8 km/h W
2026-05-09 13:00 16.2 °C 71 % 0.1 mm 9.7 km/h N
2026-05-09 12:00 14.6 °C 82 % 0.7 mm 2.9 km/h NW
2026-05-09 11:00 14.9 °C 69 % 0.5 mm 4.3 km/h SE
2026-05-09 10:00 16.2 °C 60 % 0.0 mm 4.3 km/h S
2026-05-09 09:00 15.1 °C 69 % 0.0 mm 2.9 km/h NW
2026-05-09 08:00 12.2 °C 84 % 0.0 mm 3.6 km/h NE
2026-05-09 07:00 11.8 °C 85 % 0.0 mm 4.0 km/h SE
2026-05-09 06:00 13.0 °C 80 % 0.0 mm 2.9 km/h E
2026-05-09 05:00 13.6 °C 78 % 0.0 mm 3.2 km/h SE
2026-05-09 04:00 14.6 °C 71 % 0.0 mm 1.8 km/h SE
2026-05-09 03:00 14.4 °C 73 % 0.0 mm 4.0 km/h N
2026-05-09 02:00 13.8 °C 79 % 0.1 mm 3.6 km/h SE
2026-05-09 01:00 13.5 °C 79 % 0.0 mm 2.9 km/h S
2026-05-09 00:00 13.4 °C 78 % 0.0 mm 4.0 km/h SE
2026-05-08 23:00 13.4 °C 78 % 0.0 mm 3.2 km/h SW
2026-05-08 22:00 14.4 °C 72 % 0.0 mm 4.7 km/h S
2026-05-08 21:00 16.8 °C 58 % 0.0 mm 2.2 km/h SE
2026-05-08 20:00 18.7 °C 50 % 0.0 mm 3.6 km/h NE
2026-05-08 19:00 19.9 °C 45 % 0.0 mm 5.8 km/h NW